Time;durP1;ratioP1;P1;durP2;ratioP2;P2;SDS_P1;SDS_P2;PMS_P1;PMS_P2;Temp;Humidity;BMP_temperature;BMP_pressure;BME280_temperature;BME280_humidity;BME280_pressure;Samples;Min_cycle;Max_cycle;Signal;HPM_P1;HPM_P2
2022/09/04 00:02:32;;;;;;;7.03;4.40;;;23.20;66.90;;;;;;4993265;28;20024;-91
2022/09/04 00:05:00;;;;;;;6.38;3.80;;;23.20;67.00;;;;;;4993977;28;20136;-90
2022/09/04 00:07:32;;;;;;;6.30;3.90;;;23.10;67.00;;;;;;5013513;28;20023;-90
2022/09/04 00:10:10;;;;;;;7.05;4.63;;;23.10;67.00;;;;;;5014711;28;20022;-90
2022/09/04 00:12:48;;;;;;;5.40;4.13;;;23.10;67.20;;;;;;4996855;28;20021;-90
2022/09/04 00:15:21;;;;;;;7.10;4.28;;;23.00;67.30;;;;;;5014290;28;20084;-90
2022/09/04 00:18:19;;;;;;;5.63;4.10;;;23.00;67.40;;;;;;4982890;28;20027;-91
2022/09/04 00:20:44;;;;;;;6.20;4.43;;;23.00;67.70;;;;;;5013231;28;20053;-90
2022/09/04 00:23:37;;;;;;;7.43;4.65;;;22.90;67.70;;;;;;5000144;28;20088;-90
2022/09/04 00:26:24;;;;;;;5.60;4.32;;;22.90;68.00;;;;;;5017829;28;20018;-90
2022/09/04 00:28:54;;;;;;;6.32;4.93;;;22.90;68.00;;;;;;5000348;28;20033;-90
2022/09/04 00:31:35;;;;;;;6.90;4.75;;;22.80;68.00;;;;;;4986125;28;20030;-90
2022/09/04 00:34:12;;;;;;;;;;;22.80;68.40;;;;;;4988131;28;20037;-91
2022/09/04 00:36:43;;;;;;;7.97;4.97;;;22.80;68.90;;;;;;5003751;28;19909;-90
2022/09/04 00:39:14;;;;;;;7.07;4.90;;;22.70;68.50;;;;;;4997300;28;20376;-90
2022/09/04 00:42:01;;;;;;;8.30;5.35;;;22.70;68.80;;;;;;4984080;28;20030;-90
2022/09/04 00:47:57;;;;;;;7.13;5.20;;;22.60;69.40;;;;;;5007301;28;20126;-90
2022/09/04 00:50:45;;;;;;;7.53;5.28;;;22.60;69.70;;;;;;4977528;28;20057;-90
2022/09/04 00:53:13;;;;;;;8.77;5.90;;;22.60;69.70;;;;;;5000593;28;20408;-89
2022/09/04 00:56:22;;;;;;;9.05;4.97;;;22.50;69.90;;;;;;4999985;28;20471;-90
2022/09/04 00:59:19;;;;;;;8.65;5.00;;;22.50;70.20;;;;;;4988036;28;20018;-86
2022/09/04 01:01:46;;;;;;;7.05;5.18;;;22.50;70.50;;;;;;4998742;28;20026;-87
2022/09/04 01:04:33;;;;;;;7.43;5.10;;;22.40;70.40;;;;;;4983060;28;20026;-87
2022/09/04 01:07:24;;;;;;;9.38;5.07;;;22.40;70.90;;;;;;4998789;28;20029;-87
2022/09/04 01:10:12;;;;;;;9.65;5.80;;;22.40;71.10;;;;;;4995856;28;20037;-86
2022/09/04 01:13:02;;;;;;;7.57;5.00;;;22.40;71.00;;;;;;4979122;28;20046;-87
2022/09/04 01:15:44;;;;;;;10.88;5.38;;;22.40;71.50;;;;;;4995654;28;20054;-87
2022/09/04 01:18:13;;;;;;;6.57;5.35;;;22.30;71.50;;;;;;4979395;28;20022;-86
2022/09/04 01:20:51;;;;;;;8.20;5.72;;;22.30;71.70;;;;;;4992954;28;20018;-86
2022/09/04 01:24:01;;;;;;;7.03;5.55;;;22.30;72.00;;;;;;5003454;28;20046;-85
2022/09/04 01:26:46;;;;;;;7.75;5.32;;;22.20;72.50;;;;;;5001786;28;20040;-85
2022/09/04 01:29:12;;;;;;;8.25;5.10;;;22.20;72.40;;;;;;5010477;28;20018;-85
2022/09/04 01:31:49;;;;;;;7.35;5.40;;;22.20;72.60;;;;;;4995379;28;20464;-85
2022/09/04 01:34:44;;;;;;;8.15;5.75;;;22.10;72.70;;;;;;5011542;28;20034;-86
2022/09/04 01:37:34;;;;;;;7.45;6.05;;;22.10;73.30;;;;;;4995461;28;20026;-86
2022/09/04 01:40:34;;;;;;;7.40;5.97;;;22.10;73.40;;;;;;5011689;28;20471;-85
2022/09/04 01:43:20;;;;;;;6.50;5.38;;;22.10;73.50;;;;;;4994957;28;20026;-86
2022/09/04 01:46:04;;;;;;;10.18;5.40;;;22.10;73.60;;;;;;5011216;28;20035;-85
2022/09/04 01:49:23;;;;;;;8.60;5.88;;;22.00;73.80;;;;;;4995031;28;20030;-85
2022/09/04 01:52:09;;;;;;;7.55;5.50;;;21.90;74.20;;;;;;4975058;28;20042;-85
2022/09/04 01:54:55;;;;;;;7.50;5.43;;;21.90;74.20;;;;;;4994615;28;20025;-86
2022/09/04 01:58:20;;;;;;;8.10;6.03;;;21.90;74.50;;;;;;4995768;28;20031;-85
2022/09/04 02:01:18;;;;;;;7.85;6.00;;;21.90;74.80;;;;;;4954971;28;20031;-85
2022/09/04 02:04:17;;;;;;;7.25;5.72;;;21.80;74.60;;;;;;4988894;28;20130;-90
2022/09/04 02:06:57;;;;;;;8.75;6.30;;;21.80;74.90;;;;;;5011353;28;20014;-90
2022/09/04 02:09:36;;;;;;;;;;;21.80;75.10;;;;;;4986027;28;20027;-86
2022/09/04 02:12:14;;;;;;;10.35;6.35;;;21.70;75.60;;;;;;4994743;28;19913;-86
2022/09/04 02:15:03;;;;;;;8.95;6.18;;;21.70;75.30;;;;;;4995527;28;20041;-90
2022/09/04 02:17:47;;;;;;;7.47;6.25;;;21.70;75.40;;;;;;4975574;28;20035;-91
2022/09/04 02:20:26;;;;;;;9.35;7.00;;;21.70;75.60;;;;;;5005976;28;20049;-90
2022/09/04 02:23:14;;;;;;;7.90;6.20;;;21.70;75.60;;;;;;4999792;28;20054;-91
2022/09/04 02:25:44;;;;;;;8.32;6.72;;;21.60;75.80;;;;;;4998013;28;20018;-90
2022/09/04 02:28:29;;;;;;;9.75;6.05;;;21.60;75.80;;;;;;5001895;28;20015;-90
2022/09/04 02:31:28;;;;;;;8.68;6.43;;;21.60;76.10;;;;;;4989862;28;20034;-91
2022/09/04 02:34:21;;;;;;;7.78;6.07;;;21.60;76.30;;;;;;4975711;28;20027;-88
2022/09/04 02:37:06;;;;;;;6.78;5.80;;;21.60;76.50;;;;;;5002660;28;20037;-91
2022/09/04 02:40:18;;;;;;;9.07;5.85;;;21.50;76.60;;;;;;4990282;28;20628;-91
2022/09/04 02:42:49;;;;;;;;;;;21.40;76.60;;;;;;4983334;28;20129;-91
2022/09/04 02:45:32;;;;;;;7.40;6.07;;;21.40;77.20;;;;;;4996138;28;19906;-91
2022/09/04 02:48:17;;;;;;;8.52;6.72;;;21.40;76.80;;;;;;4985376;28;20112;-91
2022/09/04 02:51:15;;;;;;;8.35;6.43;;;21.40;77.00;;;;;;5003481;28;20058;-91
2022/09/04 02:53:48;;;;;;;8.15;6.30;;;21.30;77.20;;;;;;4989148;28;20023;-90
2022/09/04 02:56:20;;;;;;;7.55;6.40;;;21.30;77.20;;;;;;4983219;28;20031;-91
2022/09/04 02:59:30;;;;;;;9.75;7.32;;;21.30;77.30;;;;;;4994985;28;20023;-91
2022/09/04 03:01:59;;;;;;;9.98;6.95;;;21.30;77.60;;;;;;5005383;28;20026;-92
2022/09/04 03:04:48;;;;;;;8.05;6.30;;;21.30;77.50;;;;;;5004413;28;20043;-91
2022/09/04 03:07:23;;;;;;;10.38;7.10;;;21.20;77.90;;;;;;4981981;28;20534;-91
2022/09/04 03:10:12;;;;;;;11.48;7.53;;;21.20;77.80;;;;;;4995027;28;20545;-91
2022/09/04 03:12:52;;;;;;;8.15;6.80;;;21.20;78.00;;;;;;4996020;28;20492;-88
2022/09/04 03:15:39;;;;;;;11.15;7.45;;;21.10;78.30;;;;;;4994382;28;20116;-87
2022/09/04 03:18:50;;;;;;;8.07;6.28;;;21.10;78.40;;;;;;5009569;28;20060;-88
2022/09/04 03:21:47;;;;;;;7.43;6.25;;;21.10;78.40;;;;;;4968650;28;20464;-88
2022/09/04 03:24:20;;;;;;;9.10;6.88;;;21.00;78.20;;;;;;4991606;28;20058;-86
2022/09/04 03:26:51;;;;;;;7.82;6.70;;;21.00;78.30;;;;;;5010667;28;20086;-91
2022/09/04 03:29:20;;;;;;;;;;;21.00;78.40;;;;;;4995995;28;20034;-91
2022/09/04 03:31:49;;;;;;;12.13;6.90;;;20.90;79.00;;;;;;5001581;28;19913;-91
2022/09/04 03:34:37;;;;;;;7.50;5.97;;;20.90;78.80;;;;;;4988860;28;20029;-90
2022/09/04 03:37:18;;;;;;;8.38;6.93;;;20.90;79.20;;;;;;4991329;28;20492;-91
2022/09/04 03:40:09;;;;;;;7.55;6.47;;;20.90;79.10;;;;;;5009498;28;20109;-90
2022/09/04 03:43:00;;;;;;;7.75;6.30;;;20.80;79.30;;;;;;4995669;28;20022;-91
2022/09/04 03:45:42;;;;;;;8.38;6.60;;;20.80;79.40;;;;;;4975215;28;20471;-86
2022/09/04 03:48:58;;;;;;;8.02;6.82;;;20.80;79.70;;;;;;5004722;28;20046;-86
2022/09/04 03:51:58;;;;;;;8.02;6.45;;;20.70;80.00;;;;;;4950547;28;20396;-86
2022/09/04 03:54:33;;;;;;;10.20;7.13;;;20.70;80.00;;;;;;4982468;28;20531;-86
2022/09/04 03:57:45;;;;;;;8.98;7.78;;;20.70;80.10;;;;;;4997470;28;20030;-85
2022/09/04 04:00:18;;;;;;;9.43;7.22;;;20.70;80.70;;;;;;4979752;28;20023;-86
2022/09/04 04:03:06;;;;;;;8.50;6.95;;;20.60;80.60;;;;;;5014849;28;20464;-86
2022/09/04 04:05:48;;;;;;;8.95;7.72;;;20.60;80.80;;;;;;4998711;28;20117;-85
2022/09/04 04:08:34;;;;;;;9.00;7.57;;;20.60;81.10;;;;;;4997917;28;20038;-91
2022/09/04 04:11:52;;;;;;;9.00;7.72;;;20.60;81.50;;;;;;4998195;28;20082;-91
2022/09/04 04:14:45;;;;;;;10.05;8.45;;;20.60;82.00;;;;;;4989594;28;20058;-92
2022/09/04 04:17:35;;;;;;;9.30;8.10;;;20.50;81.80;;;;;;4997573;28;20142;-92
2022/09/04 04:20:16;;;;;;;10.43;8.33;;;20.50;82.00;;;;;;4958900;28;20034;-92
2022/09/04 04:23:06;;;;;;;11.38;8.45;;;20.50;82.30;;;;;;4981138;28;20046;-91
2022/09/04 04:25:46;;;;;;;9.82;8.15;;;20.50;82.70;;;;;;5001379;28;20116;-91
2022/09/04 04:28:41;;;;;;;8.82;7.20;;;20.50;82.60;;;;;;5016389;28;20030;-91
2022/09/04 04:32:03;;;;;;;10.23;8.10;;;20.40;82.70;;;;;;5005549;28;20124;-91
2022/09/04 04:34:49;;;;;;;9.35;7.65;;;20.40;82.80;;;;;;4987455;28;20025;-92
2022/09/04 04:37:42;;;;;;;12.45;8.38;;;20.40;83.00;;;;;;5000466;28;20121;-93
2022/09/04 04:40:43;;;;;;;12.48;8.60;;;20.40;83.20;;;;;;4995984;28;20070;-92
2022/09/04 04:43:20;;;;;;;10.70;8.68;;;20.40;83.50;;;;;;5011560;28;20026;-92
2022/09/04 04:46:21;;;;;;;10.32;8.35;;;20.30;83.40;;;;;;4996979;28;20037;-91
2022/09/04 04:48:56;;;;;;;12.15;8.40;;;20.30;83.60;;;;;;4997344;28;20027;-93
2022/09/04 04:51:38;;;;;;;10.40;8.45;;;20.30;83.70;;;;;;5000251;28;20034;-93
2022/09/04 04:54:39;;;;;;;13.15;8.50;;;20.30;83.90;;;;;;5000956;28;20084;-92
2022/09/04 04:57:11;;;;;;;;;;;20.30;84.10;;;;;;4984722;28;20030;-93
2022/09/04 05:00:03;;;;;;;11.60;8.50;;;20.20;84.70;;;;;;5004736;28;19914;-89
2022/09/04 05:03:00;;;;;;;9.77;8.35;;;20.20;84.20;;;;;;5017276;28;20022;-91
2022/09/04 05:05:54;;;;;;;9.80;7.97;;;20.20;84.50;;;;;;5000012;28;20029;-91
2022/09/04 05:08:25;;;;;;;9.55;8.13;;;20.20;84.80;;;;;;4992197;28;20439;-91
2022/09/04 05:11:26;;;;;;;11.55;8.45;;;20.10;84.80;;;;;;5000652;28;20018;-92
2022/09/04 05:14:00;;;;;;;9.23;8.32;;;20.10;84.90;;;;;;4964343;28;20039;-90
2022/09/04 05:16:46;;;;;;;10.38;8.98;;;20.10;85.10;;;;;;5005422;28;20061;-91
2022/09/04 05:19:21;;;;;;;11.82;8.68;;;20.10;85.20;;;;;;4985485;28;20027;-88
2022/09/04 05:22:08;;;;;;;9.77;8.63;;;20.10;85.50;;;;;;4998628;28;20112;-87
2022/09/04 05:24:42;;;;;;;10.15;8.48;;;20.10;85.70;;;;;;5002210;28;20058;-90
2022/09/04 05:27:33;;;;;;;10.13;8.57;;;20.10;85.80;;;;;;5001586;28;20030;-88
2022/09/04 05:30:10;;;;;;;;;;;20.10;86.20;;;;;;4992084;28;20053;-88
2022/09/04 05:33:08;;;;;;;9.43;8.25;;;20.10;86.60;;;;;;5015374;28;20281;-87
2022/09/04 05:36:05;;;;;;;9.75;8.20;;;20.00;86.30;;;;;;5000093;28;20586;-92
2022/09/04 05:38:50;;;;;;;10.90;8.55;;;20.00;86.60;;;;;;5026133;23;20041;-87
2022/09/04 05:41:59;;;;;;;12.20;8.63;;;20.00;86.80;;;;;;4999528;28;20022;-89
2022/09/04 05:44:37;;;;;;;9.15;8.15;;;20.00;86.90;;;;;;4978816;28;20026;-88
2022/09/04 05:47:40;;;;;;;11.60;9.13;;;20.00;87.10;;;;;;4987067;28;20071;-87
2022/09/04 05:50:43;;;;;;;10.90;8.10;;;20.00;87.40;;;;;;4999429;28;20538;-88
2022/09/04 05:53:14;;;;;;;9.48;8.07;;;20.00;87.60;;;;;;4999262;28;20092;-88
2022/09/04 05:55:55;;;;;;;9.80;8.80;;;19.90;87.60;;;;;;4999472;28;20022;-87
2022/09/04 05:59:06;;;;;;;12.02;9.35;;;20.00;87.80;;;;;;4999317;28;20109;-87
2022/09/04 06:01:34;;;;;;;9.80;8.03;;;20.00;88.10;;;;;;5015217;28;20025;-87
2022/09/04 06:04:12;;;;;;;12.20;9.05;;;19.90;88.30;;;;;;4999233;28;20086;-87
2022/09/04 06:06:55;;;;;;;11.35;9.07;;;19.90;89.10;;;;;;4999361;28;20030;-86
2022/09/04 06:09:52;;;;;;;10.82;8.95;;;20.00;88.80;;;;;;5015833;28;20017;-88
2022/09/04 06:12:24;;;;;;;11.10;9.15;;;19.90;89.10;;;;;;4999193;28;20025;-88
2022/09/04 06:15:03;;;;;;;11.43;9.10;;;19.90;89.20;;;;;;4998749;28;20168;-88
2022/09/04 06:17:47;;;;;;;11.23;8.32;;;19.90;89.50;;;;;;5016464;28;20061;-88
2022/09/04 06:20:29;;;;;;;9.50;8.10;;;19.90;89.70;;;;;;5014914;28;20046;-87
2022/09/04 06:23:24;;;;;;;12.02;9.07;;;19.90;89.80;;;;;;5003391;28;20459;-88
2022/09/04 06:25:53;;;;;;;9.40;8.40;;;19.90;90.00;;;;;;4998545;28;20116;-88
2022/09/04 06:28:33;;;;;;;10.98;8.15;;;19.90;90.10;;;;;;4998487;28;20029;-86
2022/09/04 06:31:17;;;;;;;11.25;8.48;;;19.90;90.20;;;;;;4996703;28;20026;-88
2022/09/04 06:34:04;;;;;;;10.23;8.80;;;20.00;90.20;;;;;;4998431;28;20104;-88
2022/09/04 06:36:55;;;;;;;9.55;8.55;;;20.00;90.40;;;;;;4985878;28;20125;-88
2022/09/04 06:39:26;;;;;;;10.90;8.73;;;20.00;90.50;;;;;;4999049;28;20035;-88
2022/09/04 06:42:17;;;;;;;12.93;9.48;;;20.00;90.60;;;;;;5001707;28;20029;-88
2022/09/04 06:45:08;;;;;;;11.65;9.02;;;20.00;90.90;;;;;;4998695;28;20109;-88
2022/09/04 06:47:46;;;;;;;10.32;8.15;;;20.00;91.00;;;;;;4985281;28;20027;-88
2022/09/04 06:50:30;;;;;;;11.57;9.07;;;20.00;91.00;;;;;;4999021;28;20018;-88
2022/09/04 06:53:30;;;;;;;10.30;8.52;;;20.00;91.30;;;;;;5015624;28;20025;-88
2022/09/04 06:56:03;;;;;;;9.90;8.63;;;20.00;91.30;;;;;;4998056;28;20483;-88
2022/09/04 06:58:56;;;;;;;13.38;9.10;;;20.00;91.40;;;;;;4998192;28;20022;-88
2022/09/04 07:01:29;;;;;;;12.48;8.43;;;20.00;91.60;;;;;;4986621;28;20022;-88
2022/09/04 07:04:31;;;;;;;10.32;8.65;;;20.00;91.60;;;;;;5014843;28;20049;-87
2022/09/04 07:07:20;;;;;;;9.95;8.88;;;20.00;91.60;;;;;;5017975;28;20028;-86
2022/09/04 07:09:52;;;;;;;9.48;8.48;;;20.10;91.80;;;;;;4987956;28;20026;-88
2022/09/04 07:12:32;;;;;;;11.18;9.23;;;20.10;91.80;;;;;;5016058;28;20040;-88
2022/09/04 07:15:17;;;;;;;11.43;8.75;;;20.10;91.90;;;;;;4999712;28;20471;-88
2022/09/04 07:18:01;;;;;;;9.25;7.55;;;20.10;91.90;;;;;;4999400;28;20037;-88
2022/09/04 07:20:26;;;;;;;12.32;9.55;;;20.10;91.90;;;;;;4998484;28;20033;-87
2022/09/04 07:23:21;;;;;;;11.77;9.35;;;20.20;92.20;;;;;;4999015;28;20422;-87
2022/09/04 07:26:12;;;;;;;9.02;8.13;;;20.20;92.30;;;;;;4999348;28;20030;-87
2022/09/04 07:28:58;;;;;;;13.55;8.35;;;20.20;92.20;;;;;;5003270;28;20048;-88
2022/09/04 07:31:39;;;;;;;9.93;8.65;;;20.30;92.30;;;;;;5017158;28;20594;-87
2022/09/04 07:34:05;;;;;;;10.38;8.20;;;20.30;92.50;;;;;;5015094;28;20014;-87
2022/09/04 07:36:56;;;;;;;12.50;9.20;;;20.30;92.50;;;;;;5014247;28;20033;-87
2022/09/04 07:39:57;;;;;;;12.18;8.52;;;20.30;92.50;;;;;;5014663;28;20038;-88
2022/09/04 07:42:58;;;;;;;11.77;8.85;;;20.40;92.60;;;;;;4969813;28;20026;-88
2022/09/04 07:45:29;;;;;;;;;;;20.40;92.80;;;;;;5014913;28;20052;-88
2022/09/04 07:48:21;;;;;;;8.02;6.55;;;20.40;92.90;;;;;;5015411;28;19996;-89
2022/09/04 07:51:09;;;;;;;9.50;7.95;;;20.40;92.70;;;;;;5014720;28;20033;-87
2022/09/04 07:54:12;;;;;;;9.82;8.32;;;20.50;92.90;;;;;;5014908;28;20160;-88
2022/09/04 07:56:54;;;;;;;10.02;7.03;;;20.50;92.80;;;;;;5015012;28;20034;-87
2022/09/04 07:59:41;;;;;;;10.68;8.38;;;20.60;92.90;;;;;;5015593;28;20518;-88
2022/09/04 08:02:07;;;;;;;8.77;7.18;;;20.60;92.90;;;;;;4985409;28;20016;-88
2022/09/04 08:04:56;;;;;;;10.82;8.52;;;20.70;92.90;;;;;;5014986;28;20120;-88
2022/09/04 08:07:46;;;;;;;10.10;8.07;;;20.80;93.00;;;;;;4998075;28;20025;-88
2022/09/04 08:10:30;;;;;;;9.23;7.17;;;20.80;92.90;;;;;;5010203;28;20022;-88
2022/09/04 08:16:49;;;;;;;8.15;6.25;;;21.00;92.90;;;;;;5012628;28;20352;-88
2022/09/04 08:19:46;;;;;;;11.45;6.78;;;21.00;92.80;;;;;;4996624;28;20022;-88
2022/09/04 08:22:18;;;;;;;8.95;6.60;;;21.10;92.90;;;;;;4995141;28;20379;-88
2022/09/04 08:24:53;;;;;;;8.05;6.72;;;21.20;92.90;;;;;;4994397;28;20448;-86
2022/09/04 08:27:43;;;;;;;10.07;7.25;;;21.20;92.90;;;;;;5005049;28;20038;-85
2022/09/04 08:31:06;;;;;;;7.88;6.22;;;21.30;92.80;;;;;;5007760;28;20460;-86
2022/09/04 08:34:07;;;;;;;6.93;5.68;;;21.40;92.80;;;;;;5011983;28;20030;-85
2022/09/04 08:36:57;;;;;;;8.27;6.20;;;21.50;92.80;;;;;;4955669;28;20567;-85
2022/09/04 08:39:28;;;;;;;7.70;5.97;;;21.60;92.70;;;;;;4999667;28;20111;-85
2022/09/04 08:42:23;;;;;;;8.23;4.95;;;21.70;92.70;;;;;;4999954;28;20022;-86
2022/09/04 08:45:14;;;;;;;9.00;7.03;;;21.80;92.70;;;;;;5016975;28;20506;-85
2022/09/04 08:48:02;;;;;;;9.93;6.75;;;21.90;92.60;;;;;;4987786;28;20022;-85
2022/09/04 08:50:43;;;;;;;11.07;7.70;;;21.90;92.50;;;;;;4999862;28;20014;-85
2022/09/04 08:53:33;;;;;;;8.95;6.53;;;22.00;92.30;;;;;;5016208;28;20128;-87
2022/09/04 08:56:17;;;;;;;7.97;5.72;;;22.10;92.20;;;;;;4999553;28;20120;-86
2022/09/04 08:59:22;;;;;;;9.65;7.28;;;22.20;92.20;;;;;;5016515;28;20087;-88
2022/09/04 09:02:29;;;;;;;7.63;5.78;;;22.30;92.00;;;;;;4992116;28;20026;-86
2022/09/04 09:05:16;;;;;;;7.13;5.13;;;22.40;91.90;;;;;;4928080;29;20020;-86
2022/09/04 09:07:53;;;;;;;9.38;5.80;;;22.50;91.80;;;;;;4922264;29;20055;-87
2022/09/04 09:10:27;;;;;;;8.93;6.68;;;22.60;91.50;;;;;;4984775;28;20037;-86
2022/09/04 09:13:22;;;;;;;8.45;6.10;;;22.70;91.10;;;;;;5016371;28;20030;-87
2022/09/04 09:16:06;;;;;;;8.80;6.80;;;22.70;91.00;;;;;;5016184;28;20022;-87
2022/09/04 09:18:54;;;;;;;5.90;5.30;;;22.80;91.00;;;;;;5017071;28;20026;-88
2022/09/04 09:21:38;;;;;;;6.53;5.47;;;23.00;90.60;;;;;;5000131;28;20105;-87
2022/09/04 09:24:22;;;;;;;9.00;5.75;;;23.10;90.40;;;;;;4999018;28;20045;-85
2022/09/04 09:27:03;;;;;;;6.93;5.32;;;23.10;90.20;;;;;;5016374;28;20041;-86
2022/09/04 09:29:37;;;;;;;8.95;4.95;;;23.20;90.00;;;;;;5014829;28;20034;-85
2022/09/04 09:32:47;;;;;;;7.15;4.60;;;23.40;89.90;;;;;;5014629;28;20109;-85
2022/09/04 09:35:46;;;;;;;6.57;4.07;;;23.50;89.70;;;;;;4936882;29;20036;-86
2022/09/04 09:38:37;;;;;;;8.20;4.95;;;23.50;89.40;;;;;;4999358;28;20076;-86
2022/09/04 09:41:34;;;;;;;7.30;4.80;;;23.60;89.20;;;;;;5016837;28;20475;-86
2022/09/04 09:44:25;;;;;;;6.95;4.60;;;23.70;88.80;;;;;;5016426;28;20075;-87
2022/09/04 09:47:15;;;;;;;7.78;4.30;;;23.80;88.30;;;;;;4995933;28;20506;-88
2022/09/04 09:49:59;;;;;;;7.45;4.50;;;23.90;87.90;;;;;;4994671;28;20036;-88
2022/09/04 09:52:47;;;;;;;4.90;3.53;;;23.90;88.30;;;;;;5012575;28;20485;-88
2022/09/04 09:55:21;;;;;;;7.35;4.22;;;24.00;87.20;;;;;;4999551;28;20044;-88
2022/09/04 09:57:56;;;;;;;6.10;4.47;;;24.10;86.90;;;;;;5012206;28;20034;-88
2022/09/04 10:00:26;;;;;;;6.25;3.80;;;24.20;86.60;;;;;;5016469;28;20029;-88
2022/09/04 10:03:01;;;;;;;4.85;3.42;;;24.20;86.30;;;;;;4983798;28;20026;-88
2022/09/04 10:05:41;;;;;;;7.50;4.03;;;24.30;86.20;;;;;;5018190;28;20026;-94
2022/09/04 10:08:13;;;;;;;;;;;24.40;86.10;;;;;;5018680;28;20383;-95
2022/09/04 10:10:48;;;;;;;5.57;3.70;;;24.50;86.00;;;;;;5018018;28;19941;-92
2022/09/04 10:13:32;;;;;;;6.18;4.30;;;24.60;85.60;;;;;;5018202;28;20026;-95
2022/09/04 10:16:55;;;;;;;6.00;4.10;;;24.60;85.40;;;;;;5019296;28;20025;-95
2022/09/04 10:19:45;;;;;;;8.27;3.92;;;24.70;84.40;;;;;;4978353;28;20067;-95
2022/09/04 10:22:25;;;;;;;7.03;4.13;;;24.80;84.30;;;;;;5019027;28;20029;-95
2022/09/04 10:25:04;;;;;;;;;;;24.90;84.20;;;;;;5002753;28;20085;-94
2022/09/04 10:28:02;;;;;;;5.28;3.42;;;25.00;84.10;;;;;;5017760;28;19906;-95
2022/09/04 10:30:41;;;;;;;5.80;2.95;;;25.10;84.00;;;;;;5018301;28;20026;-92
2022/09/04 10:33:25;;;;;;;5.75;3.40;;;25.20;83.70;;;;;;4986565;28;20022;-95
2022/09/04 10:36:21;;;;;;;5.97;4.15;;;25.30;83.40;;;;;;5017420;28;20052;-95
2022/09/04 10:42:30;;;;;;;4.75;3.03;;;25.50;81.90;;;;;;5018799;28;20040;-95
2022/09/04 10:45:22;;;;;;;5.72;3.33;;;25.60;81.30;;;;;;5016913;28;20018;-94
2022/09/04 10:48:12;;;;;;;4.25;3.05;;;25.70;80.70;;;;;;4999928;28;20014;-93
2022/09/04 10:54:15;;;;;;;4.65;2.88;;;25.80;80.50;;;;;;5017537;28;20112;-93
2022/09/04 10:57:08;;;;;;;5.32;3.10;;;25.90;80.00;;;;;;4999682;28;20034;-93
2022/09/04 10:59:53;;;;;;;4.85;2.72;;;26.00;79.00;;;;;;4999738;28;20054;-93
2022/09/04 11:02:55;;;;;;;3.85;2.30;;;26.10;78.70;;;;;;5015589;28;20018;-92
2022/09/04 11:06:01;;;;;;;3.80;2.22;;;26.20;78.40;;;;;;4985458;28;20085;-93
2022/09/04 11:08:54;;;;;;;3.65;2.00;;;26.30;78.30;;;;;;4992097;28;20026;-93
2022/09/04 11:11:25;;;;;;;3.70;2.20;;;26.40;77.30;;;;;;5001613;28;20050;-91
2022/09/04 11:14:05;;;;;;;4.55;2.33;;;26.50;76.80;;;;;;5011674;28;20025;-91
2022/09/04 11:16:45;;;;;;;3.45;2.40;;;26.50;75.90;;;;;;4995648;28;20355;-91
2022/09/04 11:19:42;;;;;;;4.20;2.10;;;26.60;74.90;;;;;;5008023;28;20018;-91
2022/09/04 11:22:33;;;;;;;4.00;2.20;;;26.70;74.60;;;;;;4995437;28;20100;-91
2022/09/04 11:25:24;;;;;;;3.67;2.10;;;26.80;74.60;;;;;;5012337;28;20495;-91
2022/09/04 11:28:15;;;;;;;;;;;26.90;73.50;;;;;;5013875;28;20034;-92
2022/09/04 11:31:00;;;;;;;5.53;1.92;;;26.90;73.00;;;;;;5010124;28;19964;-91
2022/09/04 11:33:51;;;;;;;3.13;2.00;;;26.90;73.20;;;;;;5016433;28;20026;-89
2022/09/04 11:36:19;;;;;;;;;;;26.90;72.90;;;;;;5015447;28;20064;-91
2022/09/04 11:38:57;;;;;;;3.72;1.90;;;27.00;72.00;;;;;;5009126;28;19925;-91
2022/09/04 11:41:31;;;;;;;4.60;1.80;;;27.00;72.70;;;;;;5012335;28;20026;-91
2022/09/04 11:44:18;;;;;;;3.92;2.10;;;27.10;72.40;;;;;;4996889;28;20097;-92
2022/09/04 11:47:00;;;;;;;3.22;2.03;;;27.10;72.20;;;;;;4992736;28;20023;-91
2022/09/04 11:49:48;;;;;;;3.15;2.00;;;27.20;72.00;;;;;;5009517;28;20033;-92
2022/09/04 11:52:30;;;;;;;5.10;2.40;;;27.20;71.60;;;;;;5009187;28;20027;-90
2022/09/04 11:55:25;;;;;;;5.13;2.40;;;27.30;70.90;;;;;;5009862;28;20062;-90
2022/09/04 11:58:02;;;;;;;5.63;2.40;;;27.30;70.40;;;;;;4996781;28;20027;-89
2022/09/04 12:01:08;;;;;;;6.35;2.17;;;27.40;70.40;;;;;;4991407;28;20039;-88
2022/09/04 12:03:42;;;;;;;2.15;1.60;;;27.40;70.10;;;;;;4995193;28;20038;-87
2022/09/04 12:06:33;;;;;;;5.25;2.45;;;27.50;70.30;;;;;;4994075;28;20490;-88
2022/09/04 12:09:35;;;;;;;3.17;2.13;;;27.60;70.30;;;;;;4993738;28;20026;-87
2022/09/04 12:12:21;;;;;;;3.58;2.08;;;27.60;69.70;;;;;;4995138;28;20077;-89
2022/09/04 12:15:22;;;;;;;4.65;1.85;;;27.60;69.20;;;;;;5014408;28;20019;-88
2022/09/04 12:18:14;;;;;;;3.55;1.98;;;27.70;68.70;;;;;;5014274;28;20514;-88
2022/09/04 12:21:10;;;;;;;3.20;2.10;;;27.70;68.70;;;;;;4999182;28;20026;-91
2022/09/04 12:24:14;;;;;;;3.05;1.75;;;27.80;68.50;;;;;;5015689;28;20060;-91
2022/09/04 12:27:17;;;;;;;2.45;1.85;;;27.80;68.60;;;;;;4998836;28;20080;-92
2022/09/04 12:29:49;;;;;;;4.40;2.28;;;27.80;68.50;;;;;;5014931;28;20030;-91
2022/09/04 12:32:20;;;;;;;3.28;2.08;;;27.90;68.20;;;;;;4998514;28;20045;-92
2022/09/04 12:35:22;;;;;;;7.10;3.60;;;28.00;67.80;;;;;;4997954;28;20050;-91
2022/09/04 12:38:37;;;;;;;5.45;2.45;;;28.00;67.60;;;;;;5013577;28;20046;-91
2022/09/04 12:41:15;;;;;;;3.55;2.22;;;28.00;67.80;;;;;;4977103;28;20039;-91
2022/09/04 12:43:41;;;;;;;3.40;2.00;;;28.10;67.70;;;;;;4994591;28;20030;-91
2022/09/04 12:46:35;;;;;;;4.85;1.98;;;28.20;67.30;;;;;;5005933;28;20033;-92
2022/09/04 12:49:09;;;;;;;2.75;1.85;;;28.30;66.80;;;;;;4997914;28;20022;-92
2022/09/04 12:52:17;;;;;;;2.78;1.80;;;28.30;66.20;;;;;;5008201;28;20026;-91
2022/09/04 12:55:11;;;;;;;2.83;1.52;;;28.40;65.50;;;;;;5002520;28;20435;-91
2022/09/04 12:57:40;;;;;;;2.35;1.42;;;28.50;65.70;;;;;;4995871;28;20070;-92
2022/09/04 13:00:16;;;;;;;4.82;2.05;;;28.60;65.50;;;;;;4978753;28;20054;-88
2022/09/04 13:02:45;;;;;;;2.25;1.60;;;28.60;65.20;;;;;;5002560;28;20058;-89
2022/09/04 13:05:23;;;;;;;3.55;1.90;;;28.70;65.10;;;;;;5013512;28;20113;-91
2022/09/04 13:08:02;;;;;;;3.28;1.90;;;28.80;64.90;;;;;;5014109;28;20053;-92
2022/09/04 13:10:37;;;;;;;2.97;1.83;;;28.80;64.60;;;;;;5010991;28;20486;-89
2022/09/04 13:13:41;;;;;;;2.30;1.70;;;28.80;63.80;;;;;;5013626;28;20049;-89
2022/09/04 13:16:22;;;;;;;3.35;1.75;;;28.80;63.80;;;;;;4997759;28;20026;-91
2022/09/04 13:18:58;;;;;;;2.47;1.70;;;28.80;63.80;;;;;;4997780;28;20022;-91
2022/09/04 13:21:42;;;;;;;3.97;1.75;;;28.90;64.20;;;;;;4997650;28;20121;-91
2022/09/04 13:24:24;;;;;;;3.05;2.00;;;28.90;64.10;;;;;;4997792;28;20046;-90
2022/09/04 13:27:25;;;;;;;3.70;2.00;;;28.90;63.60;;;;;;4996960;28;20085;-91
2022/09/04 13:30:04;;;;;;;2.80;1.70;;;28.90;63.80;;;;;;4997498;28;20417;-91
2022/09/04 13:32:32;;;;;;;2.33;1.83;;;29.00;64.30;;;;;;4997689;28;20022;-92
2022/09/04 13:35:23;;;;;;;3.13;2.13;;;29.00;64.30;;;;;;4997386;28;20432;-90
2022/09/04 13:38:08;;;;;;;2.55;1.60;;;29.00;63.70;;;;;;4997678;28;20050;-89
2022/09/04 13:40:59;;;;;;;1.73;1.40;;;29.00;63.80;;;;;;5020161;28;20028;-89
2022/09/04 13:43:30;;;;;;;3.22;1.70;;;29.10;64.00;;;;;;4997712;28;20104;-89
2022/09/04 13:46:01;;;;;;;1.88;1.30;;;29.20;64.00;;;;;;4997587;28;20030;-89
2022/09/04 13:48:39;;;;;;;1.83;1.50;;;29.30;63.40;;;;;;4996533;28;20025;-90
2022/09/04 13:51:16;;;;;;;2.38;1.50;;;29.30;62.80;;;;;;4996945;28;20026;-90
2022/09/04 13:53:54;;;;;;;1.52;1.33;;;29.40;62.80;;;;;;4996845;28;20077;-89
2022/09/04 13:56:28;;;;;;;4.53;1.70;;;29.50;61.70;;;;;;4998254;28;20031;-89
2022/09/04 13:59:03;;;;;;;2.75;1.42;;;29.50;60.80;;;;;;5012795;28;20061;-89
2022/09/04 14:01:32;;;;;;;1.70;1.30;;;29.60;60.80;;;;;;4997021;28;20030;-89
2022/09/04 14:04:06;;;;;;;1.33;1.20;;;29.60;59.90;;;;;;5013033;28;20015;-89
2022/09/04 14:06:35;;;;;;;3.17;1.50;;;29.60;59.50;;;;;;5013097;28;20034;-90
2022/09/04 14:09:04;;;;;;;5.55;1.58;;;29.70;59.80;;;;;;4980392;28;20038;-89
2022/09/04 14:11:56;;;;;;;2.97;1.60;;;29.70;59.70;;;;;;4997201;28;20041;-89
2022/09/04 14:14:41;;;;;;;2.78;1.65;;;29.70;59.30;;;;;;4996514;28;20117;-89
2022/09/04 14:17:08;;;;;;;2.47;1.40;;;29.80;59.80;;;;;;4996821;28;20031;-89
2022/09/04 14:20:02;;;;;;;2.45;1.83;;;29.80;59.60;;;;;;5013583;28;20112;-89
2022/09/04 14:22:58;;;;;;;1.80;1.45;;;29.80;58.10;;;;;;4996363;28;20109;-90
2022/09/04 14:25:39;;;;;;;1.77;1.38;;;29.80;58.10;;;;;;5002495;28;20036;-89
2022/09/04 14:28:32;;;;;;;3.05;1.40;;;29.80;57.40;;;;;;4997538;28;20022;-90
2022/09/04 14:31:16;;;;;;;2.88;1.50;;;29.80;57.20;;;;;;4984385;28;20030;-90
2022/09/04 14:34:00;;;;;;;5.15;1.60;;;29.80;57.20;;;;;;5011344;28;20472;-90
2022/09/04 14:36:34;;;;;;;2.00;1.50;;;29.80;57.40;;;;;;5011004;28;20027;-89
2022/09/04 14:39:05;;;;;;;2.00;1.50;;;29.80;56.90;;;;;;4993882;28;20062;-92